createdAt,value
2018-02-11T00:00:47.402Z,4.44
2018-02-11T00:01:47.440Z,4.44
2018-02-11T00:02:47.457Z,4.34
2018-02-11T00:03:47.485Z,4.72
2018-02-11T00:04:47.512Z,4.34
2018-02-11T00:05:47.540Z,4.44
2018-02-11T00:06:47.568Z,4.44
2018-02-11T00:07:47.595Z,4.44
2018-02-11T00:08:47.624Z,4.34
2018-02-11T00:09:47.651Z,4.53
2018-02-11T00:10:47.678Z,4.44
2018-02-11T00:11:47.706Z,4.34
2018-02-11T00:12:47.734Z,4.44
2018-02-11T00:13:47.761Z,4.43
2018-02-11T00:14:47.795Z,4.44
2018-02-11T00:15:47.817Z,4.44
2018-02-11T00:16:47.845Z,4.34
2018-02-11T00:17:47.872Z,4.24
2018-02-11T00:18:47.900Z,4.34
2018-02-11T00:19:47.928Z,4.34
2018-02-11T00:20:47.956Z,4.44
2018-02-11T00:21:47.983Z,4.44
2018-02-11T00:22:48.011Z,4.44
2018-02-11T00:23:48.061Z,4.33
2018-02-11T00:24:48.067Z,4.44
2018-02-11T00:25:48.094Z,4.34
2018-02-11T00:26:48.122Z,4.24
2018-02-11T00:27:48.151Z,4.34
2018-02-11T00:28:48.178Z,4.44
2018-02-11T00:29:48.205Z,4.44
2018-02-11T00:30:48.233Z,4.24
2018-02-11T00:31:48.261Z,4.34
2018-02-11T00:32:48.289Z,4.24
2018-02-11T00:33:48.315Z,4.24
2018-02-11T00:34:48.344Z,4.24
2018-02-11T00:35:48.371Z,4.24
2018-02-11T00:36:48.399Z,4.24
2018-02-11T00:37:48.426Z,4.24
2018-02-11T00:38:48.454Z,4.34
2018-02-11T00:39:48.482Z,4.24
2018-02-11T00:40:48.510Z,4.24
2018-02-11T00:41:48.537Z,4.34
2018-02-11T00:42:48.568Z,4.24
2018-02-11T00:43:48.596Z,4.24
2018-02-11T00:44:48.621Z,4.24
2018-02-11T00:45:48.657Z,4.24
2018-02-11T00:46:48.676Z,4.34
2018-02-11T00:47:48.704Z,4.34
2018-02-11T00:48:48.732Z,4.34
2018-02-11T00:49:48.759Z,4.34
2018-02-11T00:50:48.787Z,4.34
2018-02-11T00:51:48.816Z,4.24
2018-02-11T00:52:48.843Z,4.44
2018-02-11T00:53:48.870Z,4.24
2018-02-11T00:54:48.899Z,4.53
2018-02-11T00:55:48.926Z,4.34
2018-02-11T00:56:48.958Z,4.44
2018-02-11T00:57:48.981Z,4.34
2018-02-11T00:58:49.009Z,4.53
2018-02-11T00:59:49.038Z,4.53
2018-02-11T01:00:49.065Z,4.53
2018-02-11T01:01:49.130Z,4.44
2018-02-11T01:02:49.120Z,4.34
2018-02-11T01:03:49.148Z,4.53
2018-02-11T01:04:49.176Z,4.53
2018-02-11T01:05:49.203Z,4.44
2018-02-11T01:06:49.231Z,4.34
2018-02-11T01:07:49.261Z,4.44
2018-02-11T01:08:49.287Z,4.24
2018-02-11T01:09:49.313Z,4.53
2018-02-11T01:10:49.342Z,4.34
2018-02-11T01:11:49.395Z,4.34
2018-02-11T01:12:49.398Z,4.44
2018-02-11T01:13:49.425Z,4.34
2018-02-11T01:14:49.454Z,4.44
2018-02-11T01:15:49.480Z,4.34
2018-02-11T01:16:49.508Z,4.44
2018-02-11T01:17:49.535Z,4.44
2018-02-11T01:18:49.564Z,4.53
2018-02-11T01:19:49.591Z,4.53
2018-02-11T01:20:49.619Z,4.63
2018-02-11T01:21:49.646Z,4.53
2018-02-11T01:22:49.674Z,4.53
2018-02-11T01:23:49.703Z,4.53
2018-02-11T01:24:49.731Z,4.53
2018-02-11T01:25:49.759Z,4.53
2018-02-11T01:26:49.786Z,4.63
2018-02-11T01:27:49.813Z,4.53
2018-02-11T01:28:49.841Z,4.53
2018-02-11T01:29:49.868Z,4.53
2018-02-11T01:30:49.910Z,4.53
2018-02-11T01:31:49.947Z,4.63
2018-02-11T01:32:49.952Z,4.53
2018-02-11T01:33:50.004Z,4.44
2018-02-11T01:34:50.007Z,4.53
2018-02-11T01:35:50.036Z,4.53
2018-02-11T01:36:50.063Z,4.44
2018-02-11T01:37:50.090Z,4.53
2018-02-11T01:38:50.141Z,4.53
2018-02-11T01:39:50.146Z,4.53
2018-02-11T01:40:50.174Z,4.44
2018-02-11T01:41:50.200Z,4.53
2018-02-11T01:42:50.229Z,4.44
2018-02-11T01:43:50.257Z,4.63
2018-02-11T01:44:50.284Z,4.63
2018-02-11T01:45:50.324Z,4.53
2018-02-11T01:46:50.339Z,4.53
2018-02-11T01:47:50.368Z,4.53
2018-02-11T01:48:50.396Z,4.63
2018-02-11T01:49:50.423Z,4.44
2018-02-11T01:50:50.451Z,4.53
2018-02-11T01:51:50.479Z,4.44
2018-02-11T01:52:50.506Z,4.53
2018-02-11T01:53:50.533Z,4.63
2018-02-11T01:54:50.568Z,4.53
2018-02-11T01:55:50.630Z,4.53
2018-02-11T01:56:50.617Z,4.53
2018-02-11T01:57:50.647Z,4.53
2018-02-11T01:58:50.675Z,4.44
2018-02-11T01:59:50.714Z,4.53
2018-02-11T02:00:50.729Z,4.44
2018-02-11T02:01:50.755Z,4.53
2018-02-11T02:02:50.786Z,4.53
2018-02-11T02:03:50.811Z,4.44
2018-02-11T02:04:50.860Z,4.44
2018-02-11T02:05:50.865Z,4.44
2018-02-11T02:06:50.896Z,4.44
2018-02-11T02:07:50.922Z,4.44
2018-02-11T02:08:50.950Z,4.53
2018-02-11T02:09:50.976Z,4.63
2018-02-11T02:10:51.005Z,4.53
2018-02-11T02:11:51.036Z,4.44
2018-02-11T02:12:51.061Z,4.44
2018-02-11T02:13:51.089Z,4.44
2018-02-11T02:14:51.118Z,4.44
2018-02-11T02:15:51.143Z,4.53
2018-02-11T02:16:51.172Z,4.63
2018-02-11T02:17:51.199Z,4.43
2018-02-11T02:18:51.226Z,4.44
2018-02-11T02:19:51.254Z,4.44
2018-02-11T02:20:51.282Z,4.53
2018-02-11T02:21:51.309Z,4.53
2018-02-11T02:22:51.337Z,4.44
2018-02-11T02:23:51.366Z,4.44
2018-02-11T02:24:51.393Z,4.34
2018-02-11T02:25:51.439Z,4.44
2018-02-11T02:26:51.448Z,4.43
2018-02-11T02:27:51.476Z,4.72
2018-02-11T02:28:51.504Z,4.44
2018-02-11T02:29:51.531Z,4.53
2018-02-11T02:30:51.559Z,4.44
2018-02-11T02:31:51.587Z,4.33
2018-02-11T02:32:51.674Z,4.34
2018-02-11T02:33:51.648Z,4.34
2018-02-11T02:34:51.669Z,4.63
2018-02-11T02:35:51.698Z,4.63
2018-02-11T02:36:51.726Z,4.63
2018-02-11T02:37:51.753Z,4.43
2018-02-11T02:38:51.781Z,4.44
2018-02-11T02:39:51.809Z,4.53
2018-02-11T02:40:51.837Z,4.63
2018-02-11T02:41:51.864Z,4.63
2018-02-11T02:42:51.898Z,4.53
2018-02-11T02:43:51.919Z,4.53
2018-02-11T02:44:51.955Z,4.44
2018-02-11T02:45:51.974Z,4.33
2018-02-11T02:46:52.003Z,4.53
2018-02-11T02:47:52.030Z,4.53
2018-02-11T02:48:52.059Z,4.44
2018-02-11T02:49:52.085Z,4.53
2018-02-11T02:50:52.117Z,4.34
2018-02-11T02:51:52.143Z,4.44
2018-02-11T02:52:52.170Z,4.53
2018-02-11T02:53:52.196Z,4.44
2018-02-11T02:54:52.224Z,4.44
2018-02-11T02:55:52.251Z,4.34
2018-02-11T02:56:52.280Z,4.24
2018-02-11T02:57:52.333Z,4.44
2018-02-11T02:58:52.334Z,4.34
2018-02-11T02:59:52.363Z,4.34
2018-02-11T03:00:52.401Z,4.34
2018-02-11T03:01:52.417Z,4.33
2018-02-11T03:02:52.445Z,4.72
2018-02-11T03:03:52.474Z,4.34
2018-02-11T03:04:52.501Z,4.44
2018-02-11T03:05:52.528Z,4.44
2018-02-11T03:06:52.555Z,4.44
2018-02-11T03:07:52.584Z,4.44
2018-02-11T03:08:52.612Z,4.43
2018-02-11T03:09:52.719Z,4.44
2018-02-11T03:10:52.666Z,4.34
2018-02-11T03:11:52.694Z,4.24
2018-02-11T03:12:52.742Z,4.34
2018-02-11T03:13:52.749Z,4.44
2018-02-11T03:14:52.777Z,4.63
2018-02-11T03:15:52.806Z,4.53
2018-02-11T03:16:52.833Z,4.34
2018-02-11T03:17:52.861Z,4.53
2018-02-11T03:18:52.889Z,4.53
2018-02-11T03:19:52.916Z,4.34
2018-02-11T03:20:52.944Z,4.63
2018-02-11T03:21:52.971Z,4.53
2018-02-11T03:22:52.999Z,4.44
2018-02-11T03:23:53.027Z,4.53
2018-02-11T03:24:53.087Z,4.44
2018-02-11T03:25:53.082Z,4.43
2018-02-11T03:26:53.110Z,4.44
2018-02-11T03:27:53.138Z,4.53
2018-02-11T03:28:53.182Z,4.63
2018-02-11T03:29:53.194Z,4.44
2018-02-11T03:30:53.221Z,4.44
2018-02-11T03:31:53.269Z,4.34
2018-02-11T03:32:53.276Z,4.33
2018-02-11T03:33:53.304Z,4.43
2018-02-11T03:34:53.367Z,4.53
2018-02-11T03:35:53.360Z,4.33
2018-02-11T03:36:53.388Z,4.43
2018-02-11T03:37:53.414Z,4.33
2018-02-11T03:38:53.444Z,4.53
2018-02-11T03:39:53.470Z,4.43
2018-02-11T03:40:53.498Z,4.43
2018-02-11T03:41:53.525Z,4.43
2018-02-11T03:42:53.553Z,4.43
2018-02-11T03:43:53.580Z,4.43
2018-02-11T03:44:53.609Z,4.43
2018-02-11T03:45:53.635Z,4.33
2018-02-11T03:46:53.664Z,4.43
2018-02-11T03:47:53.692Z,4.43
2018-02-11T03:48:53.719Z,4.43
2018-02-11T03:49:53.746Z,4.33
2018-02-11T03:50:53.774Z,4.43
2018-02-11T03:51:53.804Z,4.43
2018-02-11T03:52:53.830Z,4.43
2018-02-11T03:53:53.856Z,4.43
2018-02-11T03:54:53.885Z,4.43
2018-02-11T03:55:53.912Z,4.43
2018-02-11T03:56:53.944Z,4.43
2018-02-11T03:57:53.973Z,4.43
2018-02-11T03:58:53.994Z,4.53
2018-02-11T03:59:54.023Z,4.43
2018-02-11T04:00:54.051Z,4.43
2018-02-11T04:01:54.078Z,4.43
2018-02-11T04:02:54.111Z,4.63
2018-02-11T04:03:54.156Z,4.43
2018-02-11T04:04:54.176Z,4.43
2018-02-11T04:05:54.189Z,4.43
2018-02-11T04:06:54.216Z,4.43
2018-02-11T04:07:54.244Z,4.53
2018-02-11T04:08:54.272Z,4.63
2018-02-11T04:09:54.301Z,4.63
2018-02-11T04:10:54.326Z,4.43
2018-02-11T04:11:54.354Z,4.33
2018-02-11T04:12:54.382Z,4.33
2018-02-11T04:13:54.438Z,4.63
2018-02-11T04:14:54.436Z,4.33
2018-02-11T04:15:54.464Z,4.63
2018-02-11T04:16:54.492Z,4.43
2018-02-11T04:17:54.519Z,4.43
2018-02-11T04:18:54.547Z,4.63
2018-02-11T04:19:54.574Z,4.43
2018-02-11T04:20:54.601Z,4.43
2018-02-11T04:21:54.628Z,4.24
2018-02-11T04:22:54.656Z,4.43
2018-02-11T04:23:54.687Z,4.14
2018-02-11T04:24:54.712Z,4.33
2018-02-11T04:25:54.739Z,4.14
2018-02-11T04:26:54.766Z,4.33
2018-02-11T04:27:54.794Z,4.33
2018-02-11T04:28:54.822Z,4.33
2018-02-11T04:29:54.848Z,4.24
2018-02-11T04:30:54.877Z,4.24
2018-02-11T04:31:54.922Z,4.33
2018-02-11T04:32:54.932Z,4.33
2018-02-11T04:33:54.959Z,4.33
2018-02-11T04:34:55.016Z,4.33
2018-02-11T04:35:55.014Z,4.43
2018-02-11T04:36:55.044Z,4.33
2018-02-11T04:37:55.069Z,4.33
2018-02-11T04:38:55.096Z,4.24
2018-02-11T04:39:55.124Z,4.33
2018-02-11T04:40:55.152Z,4.43
2018-02-11T04:41:55.181Z,4.33
2018-02-11T04:42:55.206Z,4.24
2018-02-11T04:43:55.234Z,4.24
2018-02-11T04:44:55.262Z,4.24
2018-02-11T04:45:55.290Z,4.43
2018-02-11T04:46:55.317Z,4.33
2018-02-11T04:47:55.344Z,4.33
2018-02-11T04:48:55.372Z,4.33
2018-02-11T04:49:55.433Z,4.33
2018-02-11T04:50:55.427Z,4.33
2018-02-11T04:51:55.455Z,4.43
2018-02-11T04:52:55.482Z,4.24
2018-02-11T04:53:55.509Z,4.43
2018-02-11T04:54:55.536Z,4.14
2018-02-11T04:55:55.563Z,4.43
2018-02-11T04:56:55.593Z,4.33
2018-02-11T04:57:55.619Z,4.33
2018-02-11T04:58:55.646Z,4.24
2018-02-11T04:59:55.674Z,4.33
2018-02-11T05:00:55.702Z,4.33
2018-02-11T05:01:55.729Z,4.33
2018-02-11T05:02:55.757Z,4.33
2018-02-11T05:03:55.784Z,4.24
2018-02-11T05:04:55.811Z,4.33
2018-02-11T05:05:55.844Z,4.43
2018-02-11T05:06:55.867Z,4.43
2018-02-11T05:07:55.894Z,4.24
2018-02-11T05:08:55.922Z,4.33
2018-02-11T05:09:55.949Z,4.33
2018-02-11T05:10:55.977Z,4.24
2018-02-11T05:11:56.004Z,4.24
2018-02-11T05:12:56.034Z,4.33
2018-02-11T05:13:56.059Z,4.33
2018-02-11T05:14:56.087Z,4.33
2018-02-11T05:15:56.115Z,4.33
2018-02-11T05:16:56.143Z,4.33
2018-02-11T05:17:56.179Z,4.43
2018-02-11T05:18:56.197Z,4.33
2018-02-11T05:19:56.225Z,4.33
2018-02-11T05:20:56.296Z,4.24
2018-02-11T05:21:56.294Z,4.33
2018-02-11T05:22:56.307Z,4.33
2018-02-11T05:23:56.361Z,4.33
2018-02-11T05:24:56.363Z,4.33
2018-02-11T05:25:56.389Z,4.33
2018-02-11T05:26:56.416Z,4.33
2018-02-11T05:27:56.445Z,4.43
2018-02-11T05:28:56.473Z,4.33
2018-02-11T05:29:56.500Z,4.33
2018-02-11T05:30:56.527Z,4.24
2018-02-11T05:31:56.554Z,4.24
2018-02-11T05:32:56.583Z,4.33
2018-02-11T05:33:56.641Z,4.33
2018-02-11T05:34:56.637Z,4.43
2018-02-11T05:35:56.665Z,4.33
2018-02-11T05:36:56.693Z,4.33
2018-02-11T05:37:56.719Z,4.33
2018-02-11T05:38:56.748Z,4.33
2018-02-11T05:39:56.788Z,4.24
2018-02-11T05:40:56.803Z,4.24
2018-02-11T05:41:56.830Z,4.33
2018-02-11T05:42:56.857Z,4.33
2018-02-11T05:43:56.885Z,4.24
2018-02-11T05:44:56.949Z,4.33
2018-02-11T05:45:56.963Z,4.05
2018-02-11T05:46:56.989Z,4.43
2018-02-11T05:47:56.995Z,4.24
2018-02-11T05:48:57.023Z,4.24
2018-02-11T05:49:57.050Z,4.24
2018-02-11T05:50:57.078Z,4.33
2018-02-11T05:51:57.107Z,4.33
2018-02-11T05:52:57.133Z,4.24
2018-02-11T05:53:57.160Z,4.24
2018-02-11T05:54:57.188Z,4.24
2018-02-11T05:55:57.216Z,4.33
2018-02-11T05:56:57.244Z,4.33
2018-02-11T05:57:57.303Z,4.24
2018-02-11T05:58:57.298Z,4.24
2018-02-11T05:59:57.326Z,4.43
2018-02-11T06:00:57.354Z,4.33
2018-02-11T06:01:57.385Z,4.43
2018-02-11T06:02:57.408Z,4.43
2018-02-11T06:03:57.435Z,4.24
2018-02-11T06:04:57.465Z,4.33
2018-02-11T06:05:57.490Z,4.24
2018-02-11T06:06:57.518Z,4.33
2018-02-11T06:07:57.586Z,4.33
2018-02-11T06:08:57.578Z,4.33
2018-02-11T06:09:57.601Z,4.43
2018-02-11T06:10:57.632Z,4.24
2018-02-11T06:11:57.657Z,4.24
2018-02-11T06:12:57.683Z,4.24
2018-02-11T06:13:57.711Z,4.33
2018-02-11T06:14:57.748Z,4.24
2018-02-11T06:15:57.768Z,4.33
2018-02-11T06:16:57.795Z,4.24
2018-02-11T06:17:57.822Z,4.24
2018-02-11T06:18:57.849Z,4.33
2018-02-11T06:19:57.876Z,4.43
2018-02-11T06:20:57.905Z,4.33
2018-02-11T06:21:57.931Z,4.43
2018-02-11T06:22:57.959Z,4.43
2018-02-11T06:23:57.987Z,3.95
2018-02-11T06:24:58.015Z,3.95
2018-02-11T06:25:58.042Z,3.95
2018-02-11T06:26:58.069Z,4.05
2018-02-11T06:27:58.097Z,4.43
2018-02-11T06:28:58.154Z,3.95
2018-02-11T06:29:58.152Z,4.43
2018-02-11T06:30:58.179Z,4.24
2018-02-11T06:31:58.208Z,4.43
2018-02-11T06:32:58.236Z,4.43
2018-02-11T06:33:58.282Z,3.95
2018-02-11T06:34:58.290Z,4.43
2018-02-11T06:35:58.317Z,3.95
2018-02-11T06:36:58.346Z,4.24
2018-02-11T06:37:58.374Z,4.24
2018-02-11T06:38:58.400Z,4.33
2018-02-11T06:39:58.428Z,4.33
2018-02-11T06:40:58.456Z,4.24
2018-02-11T06:41:58.482Z,4.24
2018-02-11T06:42:58.525Z,4.05
2018-02-11T06:43:58.538Z,4.24
2018-02-11T06:44:58.566Z,4.24
2018-02-11T06:45:58.593Z,4.24
2018-02-11T06:46:58.621Z,4.33
2018-02-11T06:47:58.648Z,4.05
2018-02-11T06:48:58.676Z,4.33
2018-02-11T06:49:58.702Z,4.43
2018-02-11T06:50:58.731Z,4.24
2018-02-11T06:51:58.758Z,4.53
2018-02-11T06:52:58.786Z,4.43
2018-02-11T06:53:58.813Z,4.33
2018-02-11T06:54:58.858Z,4.43
2018-02-11T06:55:58.869Z,4.43
2018-02-11T06:56:58.928Z,4.53
2018-02-11T06:57:58.924Z,4.24
2018-02-11T06:58:58.984Z,4.05
2018-02-11T06:59:58.979Z,4.14
2018-02-11T07:00:59.007Z,4.05
2018-02-11T07:01:59.034Z,4.14
2018-02-11T07:02:59.062Z,4.24
2018-02-11T07:03:59.090Z,4.43
2018-02-11T07:04:59.117Z,4.05
2018-02-11T07:05:59.169Z,4.43
2018-02-11T07:06:59.188Z,4.43
2018-02-11T07:07:59.199Z,4.43
2018-02-11T07:08:59.227Z,4.44
2018-02-11T07:09:59.254Z,4.43
2018-02-11T07:10:59.282Z,4.05
2018-02-11T07:11:59.310Z,4.44
2018-02-11T07:12:59.338Z,4.05
2018-02-11T07:13:59.366Z,4.05
2018-02-11T07:14:59.392Z,4.05
2018-02-11T07:15:59.420Z,4.05
2018-02-11T07:16:59.455Z,4.14
2018-02-11T07:17:59.474Z,4.05
2018-02-11T07:18:59.502Z,4.05
2018-02-11T07:19:59.533Z,4.24
2018-02-11T07:20:59.558Z,4.05
2018-02-11T07:21:59.586Z,4.05
2018-02-11T07:22:59.613Z,4.14
2018-02-11T07:23:59.641Z,4.05
2018-02-11T07:24:59.669Z,4.14
2018-02-11T07:25:59.695Z,4.14
2018-02-11T07:26:59.723Z,4.05
2018-02-11T07:27:59.774Z,4.05
2018-02-11T07:28:59.780Z,4.05
2018-02-11T07:29:59.806Z,4.05
2018-02-11T07:30:59.833Z,4.14
2018-02-11T07:31:59.904Z,4.24
2018-02-11T07:32:59.902Z,4.05
2018-02-11T07:33:59.942Z,4.05
2018-02-11T07:34:59.943Z,4.05
2018-02-11T07:35:59.975Z,4.14
2018-02-11T07:37:00.000Z,4.05
2018-02-11T07:38:00.032Z,4.05
2018-02-11T07:39:00.055Z,4.24
2018-02-11T07:40:00.084Z,3.95
2018-02-11T07:41:00.111Z,4.14
2018-02-11T07:42:00.139Z,4.05
2018-02-11T07:43:00.169Z,4.24
2018-02-11T07:44:00.200Z,4.05
2018-02-11T07:45:00.221Z,4.05
2018-02-11T07:46:00.247Z,4.05
2018-02-11T07:47:00.276Z,4.05
2018-02-11T07:48:00.323Z,4.24
2018-02-11T07:49:00.331Z,4.14
2018-02-11T07:50:00.358Z,4.14
2018-02-11T07:51:00.385Z,4.05
2018-02-11T07:52:00.413Z,4.24
2018-02-11T07:53:00.472Z,4.14
2018-02-11T07:54:00.468Z,4.14
2018-02-11T07:55:00.496Z,4.14
2018-02-11T07:56:00.523Z,4.05
2018-02-11T07:57:00.551Z,4.14
2018-02-11T07:58:00.578Z,4.05
2018-02-11T07:59:00.606Z,4.05
2018-02-11T08:00:00.634Z,4.05
2018-02-11T08:01:00.662Z,4.05
2018-02-11T08:02:00.689Z,4.05
2018-02-11T08:03:00.717Z,4.24
2018-02-11T08:04:00.744Z,4.14
2018-02-11T08:05:00.778Z,4.05
2018-02-11T08:06:00.800Z,4.05
2018-02-11T08:07:00.827Z,4.05
2018-02-11T08:08:00.857Z,4.05
2018-02-11T08:09:00.883Z,4.05
2018-02-11T08:10:00.909Z,4.05
2018-02-11T08:11:00.937Z,3.95
2018-02-11T08:12:00.965Z,4.14
2018-02-11T08:13:00.993Z,4.14
2018-02-11T08:14:01.020Z,3.95
2018-02-11T08:15:01.053Z,3.95
2018-02-11T08:16:01.119Z,3.95
2018-02-11T08:17:01.104Z,4.05
2018-02-11T08:18:01.150Z,3.95
2018-02-11T08:19:01.160Z,4.05
2018-02-11T08:20:01.186Z,3.95
2018-02-11T08:21:01.214Z,4.05
2018-02-11T08:22:01.241Z,3.95
2018-02-11T08:23:01.269Z,4.05
2018-02-11T08:24:01.297Z,4.05
2018-02-11T08:25:01.324Z,3.95
2018-02-11T08:26:01.352Z,4.05
2018-02-11T08:27:01.379Z,4.05
2018-02-11T08:28:01.407Z,3.95
2018-02-11T08:29:01.435Z,4.05
2018-02-11T08:30:01.462Z,4.05
2018-02-11T08:31:01.490Z,4.05
2018-02-11T08:32:01.548Z,4.05
2018-02-11T08:33:01.546Z,4.05
2018-02-11T08:34:01.572Z,4.05
2018-02-11T08:35:01.599Z,4.05
2018-02-11T08:36:01.627Z,3.95
2018-02-11T08:37:01.655Z,3.95
2018-02-11T08:38:01.682Z,4.05
2018-02-11T08:39:01.710Z,4.24
2018-02-11T08:40:01.738Z,3.95
2018-02-11T08:41:01.766Z,4.05
2018-02-11T08:42:01.793Z,4.14
2018-02-11T08:43:01.821Z,4.05
2018-02-11T08:44:01.849Z,4.14
2018-02-11T08:45:01.876Z,4.05
2018-02-11T08:46:01.991Z,4.05
2018-02-11T08:47:01.934Z,3.95
2018-02-11T08:48:01.959Z,4.05
2018-02-11T08:49:01.987Z,3.95
2018-02-11T08:50:02.015Z,4.05
2018-02-11T08:51:02.042Z,3.95
2018-02-11T08:52:02.070Z,3.95
2018-02-11T08:53:02.097Z,4.05
2018-02-11T08:54:02.124Z,3.95
2018-02-11T08:55:02.152Z,4.05
2018-02-11T08:56:02.180Z,4.05
2018-02-11T08:57:02.228Z,4.05
2018-02-11T08:58:02.267Z,4.05
2018-02-11T08:59:02.262Z,4.05
2018-02-11T09:00:02.292Z,4.14
2018-02-11T09:01:02.319Z,4.05
2018-02-11T09:02:02.345Z,4.05
2018-02-11T09:03:02.373Z,3.95
2018-02-11T09:04:02.452Z,4.05
2018-02-11T09:05:02.431Z,4.05
2018-02-11T09:06:02.456Z,4.05
2018-02-11T09:07:02.519Z,4.14
2018-02-11T09:08:02.544Z,4.05
2018-02-11T09:09:02.540Z,4.14
2018-02-11T09:10:02.568Z,4.24
2018-02-11T09:11:02.594Z,4.24
2018-02-11T09:12:02.623Z,4.14
2018-02-11T09:13:02.650Z,4.24
2018-02-11T09:14:02.681Z,4.05
2018-02-11T09:15:02.705Z,4.05
2018-02-11T09:16:02.738Z,4.05
2018-02-11T09:17:02.760Z,4.05
2018-02-11T09:18:02.788Z,4.14
2018-02-11T09:19:02.816Z,4.14
2018-02-11T09:20:02.844Z,4.14
2018-02-11T09:21:02.875Z,4.05
2018-02-11T09:22:02.898Z,4.05
2018-02-11T09:23:02.926Z,4.05
2018-02-11T09:24:02.955Z,3.95
2018-02-11T09:25:02.988Z,3.95
2018-02-11T09:26:03.008Z,3.95
2018-02-11T09:27:03.036Z,4.14
2018-02-11T09:28:03.064Z,4.05
2018-02-11T09:29:03.092Z,4.24
2018-02-11T09:30:03.119Z,4.05
2018-02-11T09:31:03.192Z,4.05
2018-02-11T09:32:03.177Z,4.24
2018-02-11T09:33:03.202Z,4.05
2018-02-11T09:34:03.229Z,4.05
2018-02-11T09:35:03.257Z,3.95
2018-02-11T09:36:03.285Z,4.05
2018-02-11T09:37:03.313Z,4.14
2018-02-11T09:38:03.340Z,4.14
2018-02-11T09:39:03.373Z,4.14
2018-02-11T09:40:03.396Z,4.24
2018-02-11T09:41:03.423Z,4.24
2018-02-11T09:42:03.452Z,4.34
2018-02-11T09:43:03.478Z,4.34
2018-02-11T09:44:03.506Z,4.34
2018-02-11T09:45:03.569Z,4.24
2018-02-11T09:46:03.562Z,4.34
2018-02-11T09:47:03.590Z,4.34
2018-02-11T09:48:03.617Z,4.24
2018-02-11T09:49:03.646Z,4.24
2018-02-11T09:50:03.672Z,4.24
2018-02-11T09:51:03.700Z,4.24
2018-02-11T09:52:03.727Z,4.24
2018-02-11T09:53:03.756Z,4.05
2018-02-11T09:54:03.783Z,4.24
2018-02-11T09:55:03.811Z,4.24
2018-02-11T09:56:03.839Z,4.14
2018-02-11T09:57:03.867Z,4.14
2018-02-11T09:58:03.896Z,4.34
2018-02-11T09:59:03.921Z,4.34
2018-02-11T10:00:03.961Z,4.24
2018-02-11T10:01:03.978Z,4.34
2018-02-11T10:02:04.005Z,4.24
2018-02-11T10:03:04.032Z,4.14
2018-02-11T10:04:04.060Z,4.05
2018-02-11T10:05:04.089Z,4.05
2018-02-11T10:06:04.116Z,3.96
2018-02-11T10:07:04.144Z,4.05
2018-02-11T10:08:04.171Z,4.05
2018-02-11T10:09:04.199Z,4.34
2018-02-11T10:10:04.274Z,4.24
2018-02-11T10:11:04.254Z,4.14
2018-02-11T10:12:04.282Z,3.95
2018-02-11T10:13:04.312Z,4.14
2018-02-11T10:14:04.337Z,4.05
2018-02-11T10:15:04.365Z,4.14
2018-02-11T10:16:04.394Z,4.24
2018-02-11T10:17:04.420Z,4.14
2018-02-11T10:18:04.448Z,4.14
2018-02-11T10:19:04.476Z,4.14
2018-02-11T10:20:04.518Z,3.95
2018-02-11T10:21:04.532Z,4.24
2018-02-11T10:22:04.560Z,4.05
2018-02-11T10:23:04.587Z,4.34
2018-02-11T10:24:04.614Z,4.05
2018-02-11T10:25:04.642Z,4.24
2018-02-11T10:26:04.678Z,4.05
2018-02-11T10:27:04.697Z,4.05
2018-02-11T10:28:04.725Z,4.14
2018-02-11T10:29:04.753Z,4.14
2018-02-11T10:30:04.780Z,3.95
2018-02-11T10:31:04.808Z,4.05
2018-02-11T10:32:04.836Z,4.05
2018-02-11T10:33:04.864Z,4.24
2018-02-11T10:34:04.891Z,4.05
2018-02-11T10:35:04.919Z,4.05
2018-02-11T10:36:04.947Z,4.05
2018-02-11T10:37:04.975Z,4.05
2018-02-11T10:38:05.002Z,4.05
2018-02-11T10:39:05.030Z,3.95
2018-02-11T10:40:05.064Z,4.05
2018-02-11T10:41:05.085Z,3.95
2018-02-11T10:42:05.112Z,4.05
2018-02-11T10:43:05.140Z,3.95
2018-02-11T10:44:05.170Z,3.96
2018-02-11T10:45:05.197Z,4.05
2018-02-11T10:46:05.224Z,4.05
2018-02-11T10:47:05.252Z,4.05
2018-02-11T10:48:05.279Z,4.05
2018-02-11T10:49:05.307Z,3.95
2018-02-11T10:50:05.365Z,3.95
2018-02-11T10:51:05.363Z,4.05
2018-02-11T10:52:05.405Z,4.14
2018-02-11T10:53:05.418Z,4.14
2018-02-11T10:54:05.444Z,4.14
2018-02-11T10:55:05.503Z,4.14
2018-02-11T10:56:05.501Z,4.14
2018-02-11T10:57:05.529Z,4.14
2018-02-11T10:58:05.556Z,4.14
2018-02-11T10:59:05.583Z,4.05
2018-02-11T11:00:05.611Z,4.24
2018-02-11T11:01:05.642Z,4.05
2018-02-11T11:02:05.672Z,4.05
2018-02-11T11:03:05.694Z,4.14
2018-02-11T11:04:05.722Z,4.05
2018-02-11T11:05:05.755Z,4.24
2018-02-11T11:06:05.780Z,4.05
2018-02-11T11:07:05.805Z,4.05
2018-02-11T11:08:05.835Z,4.05
2018-02-11T11:09:05.861Z,4.14
2018-02-11T11:10:05.888Z,4.14
2018-02-11T11:11:05.915Z,4.24
2018-02-11T11:12:05.945Z,4.14
2018-02-11T11:13:06.006Z,4.34
2018-02-11T11:14:05.999Z,4.05
2018-02-11T11:15:06.027Z,4.05
2018-02-11T11:16:06.054Z,4.05
2018-02-11T11:17:06.082Z,4.05
2018-02-11T11:18:06.109Z,4.05
2018-02-11T11:19:06.137Z,4.24
2018-02-11T11:20:06.165Z,4.34
2018-02-11T11:21:06.192Z,4.44
2018-02-11T11:22:06.220Z,4.24
2018-02-11T11:23:06.248Z,4.44
2018-02-11T11:24:06.277Z,4.44
2018-02-11T11:25:06.304Z,4.44
2018-02-11T11:26:06.330Z,4.44
2018-02-11T11:27:06.359Z,4.24
2018-02-11T11:28:06.387Z,4.44
2018-02-11T11:29:06.415Z,4.24
2018-02-11T11:30:06.441Z,4.44
2018-02-11T11:31:06.470Z,4.24
2018-02-11T11:32:06.497Z,4.34
2018-02-11T11:33:06.525Z,4.24
2018-02-11T11:34:06.552Z,4.34
2018-02-11T11:35:06.580Z,4.24
2018-02-11T11:36:06.607Z,3.95
2018-02-11T11:37:06.635Z,4.44
2018-02-11T11:38:06.662Z,4.24
2018-02-11T11:39:06.693Z,4.44
2018-02-11T11:40:06.719Z,4.14
2018-02-11T11:41:06.747Z,3.95
2018-02-11T11:42:06.773Z,4.05
2018-02-11T11:43:06.801Z,4.44
2018-02-11T11:44:06.830Z,4.05
2018-02-11T11:45:06.856Z,4.44
2018-02-11T11:46:06.884Z,4.05
2018-02-11T11:47:06.947Z,4.05
2018-02-11T11:48:06.940Z,4.05
2018-02-11T11:49:06.967Z,4.05
2018-02-11T11:50:06.995Z,3.96
2018-02-11T11:51:07.024Z,4.44
2018-02-11T11:52:07.050Z,3.95
2018-02-11T11:53:07.078Z,4.24
2018-02-11T11:54:07.105Z,4.14
2018-02-11T11:55:07.133Z,4.14
2018-02-11T11:56:07.161Z,3.95
2018-02-11T11:57:07.189Z,4.44
2018-02-11T11:58:07.216Z,4.44
2018-02-11T11:59:07.244Z,3.95
2018-02-11T12:00:07.280Z,3.95
2018-02-11T12:01:07.331Z,4.44
2018-02-11T12:02:07.326Z,4.24
2018-02-11T12:03:07.355Z,4.14
2018-02-11T12:04:07.382Z,4.44
2018-02-11T12:05:07.410Z,3.95
2018-02-11T12:06:07.437Z,4.24
2018-02-11T12:07:07.473Z,4.24
2018-02-11T12:08:07.493Z,4.24
2018-02-11T12:09:07.521Z,4.24
2018-02-11T12:10:07.548Z,4.24
2018-02-11T12:11:07.576Z,4.24
2018-02-11T12:12:07.610Z,4.24
2018-02-11T12:13:07.631Z,4.44
2018-02-11T12:14:07.679Z,4.44
2018-02-11T12:15:07.687Z,4.24
2018-02-11T12:16:07.714Z,4.24
2018-02-11T12:17:07.762Z,4.44
2018-02-11T12:18:07.781Z,4.34
2018-02-11T12:19:07.827Z,4.24
2018-02-11T12:20:07.824Z,4.34
2018-02-11T12:21:07.852Z,4.44
2018-02-11T12:22:07.880Z,4.53
2018-02-11T12:23:07.911Z,4.24
2018-02-11T12:24:07.948Z,4.44
2018-02-11T12:25:07.970Z,4.05
2018-02-11T12:26:07.991Z,4.34
2018-02-11T12:27:08.018Z,4.24
2018-02-11T12:28:08.046Z,4.24
2018-02-11T12:29:08.074Z,4.24
2018-02-11T12:30:08.107Z,4.34
2018-02-11T12:31:08.129Z,4.24
2018-02-11T12:32:08.199Z,4.24
2018-02-11T12:33:08.185Z,4.24
2018-02-11T12:34:08.211Z,4.34
2018-02-11T12:35:08.239Z,4.44
2018-02-11T12:36:08.267Z,4.24
2018-02-11T12:37:08.298Z,4.34
2018-02-11T12:38:08.322Z,4.24
2018-02-11T12:39:08.352Z,4.34
2018-02-11T12:40:08.377Z,4.24
2018-02-11T12:41:08.406Z,4.24
2018-02-11T12:42:08.432Z,4.24
2018-02-11T12:43:08.461Z,4.34
2018-02-11T12:44:08.505Z,4.34
2018-02-11T12:45:08.517Z,4.34
2018-02-11T12:46:08.543Z,4.24
2018-02-11T12:47:08.603Z,4.24
2018-02-11T12:48:08.599Z,4.24
2018-02-11T12:49:08.639Z,4.24
2018-02-11T12:50:08.656Z,4.14
2018-02-11T12:51:08.682Z,4.14
2018-02-11T12:52:08.710Z,4.24
2018-02-11T12:53:08.737Z,4.34
2018-02-11T12:54:08.765Z,4.34
2018-02-11T12:55:08.793Z,4.24
2018-02-11T12:56:08.829Z,4.24
2018-02-11T12:57:08.878Z,4.44
2018-02-11T12:58:08.907Z,4.24
2018-02-11T12:59:08.903Z,4.24
2018-02-11T13:00:08.931Z,4.44
2018-02-11T13:01:08.994Z,4.34
2018-02-11T13:02:08.986Z,4.34
2018-02-11T13:03:09.014Z,4.34
2018-02-11T13:04:09.041Z,4.34
2018-02-11T13:05:09.070Z,4.44
2018-02-11T13:06:09.121Z,4.44
2018-02-11T13:07:09.125Z,4.53
2018-02-11T13:08:09.153Z,4.44
2018-02-11T13:09:09.180Z,4.53
2018-02-11T13:10:09.207Z,4.34
2018-02-11T13:11:09.234Z,4.24
2018-02-11T13:12:09.281Z,4.24
2018-02-11T13:13:09.291Z,4.24
2018-02-11T13:14:09.318Z,4.53
2018-02-11T13:15:09.345Z,4.53
2018-02-11T13:16:09.378Z,4.53
2018-02-11T13:17:09.401Z,4.24
2018-02-11T13:18:09.492Z,4.14
2018-02-11T13:19:09.456Z,4.44